Time;durP1;ratioP1;P1;durP2;ratioP2;P2;SDS_P1;SDS_P2;PMS_P1;PMS_P2;Temp;Humidity;BMP_temperature;BMP_pressure;BME280_temperature;BME280_humidity;BME280_pressure;Samples;Min_cycle;Max_cycle;Signal;HPM_P1;HPM_P2
2023/12/29 00:01:15;;;;;;;67.10;29.37;;;5.30;99.90;;;5.15;63.65;95639.31;5005208;28;21013;-57
2023/12/29 00:03:42;;;;;;;63.87;29.73;;;5.30;99.90;;;5.12;63.90;95636.88;5007260;28;20539;-57
2023/12/29 00:06:09;;;;;;;61.10;31.03;;;5.20;99.90;;;5.10;64.15;95626.53;5007067;28;20473;-56
2023/12/29 00:08:39;;;;;;;45.00;28.03;;;5.20;99.90;;;5.07;63.56;95625.88;5008695;28;20580;-57
2023/12/29 00:11:06;;;;;;;54.53;29.57;;;5.20;99.90;;;5.03;63.74;95623.44;5008763;28;20466;-58
2023/12/29 00:13:34;;;;;;;55.23;30.23;;;5.20;99.90;;;5.00;64.04;95617.53;5008625;28;20954;-56
2023/12/29 00:16:01;;;;;;;54.43;31.40;;;5.10;99.90;;;4.96;64.24;95618.66;5009008;28;20491;-57
2023/12/29 00:18:28;;;;;;;57.43;29.80;;;5.10;99.90;;;4.95;63.98;95628.22;5008265;28;20442;-57
2023/12/29 00:20:56;;;;;;;52.80;26.30;;;5.10;99.90;;;4.95;64.11;95635.22;5008128;28;20501;-59
2023/12/29 00:23:23;;;;;;;52.77;28.33;;;5.10;99.90;;;4.94;63.77;95634.41;5003718;28;20461;-59
2023/12/29 00:25:52;;;;;;;51.00;29.37;;;5.10;99.90;;;4.93;64.30;95622.28;5008467;28;20564;-59
2023/12/29 00:28:19;;;;;;;49.50;28.10;;;5.10;99.90;;;4.93;64.11;95616.22;5008534;28;20556;-55
2023/12/29 00:30:46;;;;;;;57.67;30.40;;;5.10;99.90;;;4.91;64.22;95613.72;5008665;28;20496;-59
2023/12/29 00:33:14;;;;;;;51.77;29.53;;;5.10;99.90;;;4.90;63.88;95617.25;5008862;28;20449;-56
2023/12/29 00:35:41;;;;;;;51.47;26.33;;;5.00;99.90;;;4.87;64.09;95608.75;5008504;28;20473;-58
2023/12/29 00:38:08;;;;;;;51.07;27.27;;;5.00;99.90;;;4.84;63.60;95612.38;5008503;28;20760;-59
2023/12/29 00:40:36;;;;;;;40.60;23.27;;;5.00;99.90;;;4.82;64.47;95609.03;5008884;28;20474;-58
2023/12/29 00:43:04;;;;;;;55.13;23.37;;;5.00;99.90;;;4.80;64.04;95610.84;5008457;28;21008;-59
2023/12/29 00:45:35;;;;;;;54.63;30.90;;;4.90;99.90;;;4.78;64.73;95628.34;5006951;28;20643;-57
2023/12/29 00:48:03;;;;;;;71.83;37.70;;;4.90;99.90;;;4.74;64.18;95627.69;5008270;28;20446;-58
2023/12/29 00:50:30;;;;;;;75.87;41.03;;;4.90;99.90;;;4.70;63.79;95620.13;5008348;28;20548;-58
2023/12/29 00:52:57;;;;;;;70.43;36.13;;;4.80;99.90;;;4.69;64.13;95615.84;5008890;28;20493;-57
2023/12/29 00:55:25;;;;;;;80.60;41.30;;;4.80;99.90;;;4.65;63.95;95616.00;5007899;28;20537;-58
2023/12/29 00:57:52;;;;;;;88.63;41.77;;;4.80;99.90;;;4.65;63.75;95617.78;5008590;28;20462;-58
2023/12/29 01:00:21;;;;;;;89.20;43.37;;;4.80;99.90;;;4.62;64.05;95613.56;5008534;28;20477;-58
2023/12/29 01:02:48;;;;;;;97.23;46.20;;;4.70;99.90;;;4.59;64.11;95613.75;5008658;28;20484;-56
2023/12/29 01:05:17;;;;;;;84.13;42.90;;;4.70;99.90;;;4.58;64.04;95606.00;5008264;28;20504;-59
2023/12/29 01:07:44;;;;;;;97.67;45.90;;;4.70;99.90;;;4.58;64.30;95612.06;5008516;28;20537;-58
2023/12/29 01:10:12;;;;;;;104.17;46.50;;;4.70;99.90;;;4.55;64.54;95620.03;5008439;28;20499;-59
2023/12/29 01:12:39;;;;;;;84.27;41.90;;;4.70;99.90;;;4.54;63.99;95620.13;5010378;28;20461;-58
2023/12/29 01:15:07;;;;;;;83.00;41.43;;;4.70;99.90;;;4.51;63.64;95618.53;5011830;28;20477;-59
2023/12/29 01:17:36;;;;;;;80.40;42.40;;;4.70;99.90;;;4.47;64.46;95624.84;5012030;28;20483;-58
2023/12/29 01:20:04;;;;;;;95.20;45.10;;;4.60;99.90;;;4.45;64.08;95617.09;5012063;28;20491;-58
2023/12/29 01:22:31;;;;;;;94.40;43.13;;;4.60;99.90;;;4.42;64.43;95617.28;5012219;28;20485;-58
2023/12/29 01:25:00;;;;;;;90.73;37.13;;;4.60;99.90;;;4.40;64.51;95620.88;5011936;28;20488;-56
2023/12/29 01:27:28;;;;;;;60.17;30.50;;;4.60;99.90;;;4.35;65.10;95621.13;5011986;28;20540;-58
2023/12/29 01:29:55;;;;;;;59.90;28.80;;;4.50;99.90;;;4.34;64.78;95619.47;5011992;28;20504;-56
2023/12/29 01:32:22;;;;;;;53.17;28.73;;;4.50;99.90;;;4.35;64.90;95620.28;5012247;28;20827;-57
2023/12/29 01:34:52;;;;;;;62.77;28.63;;;4.50;99.90;;;4.32;64.89;95629.09;5011374;28;21186;-57
2023/12/29 01:37:20;;;;;;;50.47;28.27;;;4.50;99.90;;;4.30;66.06;95630.97;5012354;28;20441;-56
2023/12/29 01:39:47;;;;;;;49.43;25.03;;;4.50;99.90;;;4.27;65.82;95623.31;5007712;28;20998;-59
2023/12/29 01:42:14;;;;;;;51.37;24.53;;;4.40;99.90;;;4.25;65.98;95619.97;5009074;28;20484;-56
2023/12/29 01:44:43;;;;;;;45.50;22.27;;;4.40;99.90;;;4.22;66.24;95615.75;5011496;28;20469;-56
2023/12/29 01:47:15;;;;;;;42.70;22.23;;;4.40;99.90;;;4.21;65.74;95615.84;5011118;28;20808;-57
2023/12/29 01:49:42;;;;;;;49.70;22.83;;;4.40;99.90;;;4.22;65.59;95615.75;5011401;28;20493;-59
2023/12/29 01:52:11;;;;;;;41.53;22.30;;;4.40;99.90;;;4.25;66.02;95609.53;5011656;28;20457;-58
2023/12/29 01:54:40;;;;;;;48.83;23.20;;;4.40;99.90;;;4.25;65.78;95615.59;5011456;28;20834;-58
2023/12/29 01:57:08;;;;;;;43.30;23.47;;;4.40;99.90;;;4.23;65.83;95612.22;5011440;28;20889;-58
2023/12/29 01:59:36;;;;;;;45.83;22.80;;;4.40;99.90;;;4.23;66.27;95604.41;5011024;28;20470;-57
2023/12/29 02:02:03;;;;;;;50.43;24.30;;;4.40;99.90;;;4.23;65.84;95607.03;5011417;28;20901;-59
2023/12/29 02:04:30;;;;;;;43.80;23.63;;;4.40;99.90;;;4.23;66.24;95606.16;5012207;28;20514;-59
2023/12/29 02:06:58;;;;;;;44.60;20.27;;;4.40;99.90;;;4.23;65.86;95593.16;5011760;28;20488;-59
2023/12/29 02:09:27;;;;;;;37.73;20.60;;;4.40;99.90;;;4.23;66.31;95591.41;5011537;28;20601;-57
2023/12/29 02:11:55;;;;;;;41.53;22.97;;;4.40;99.90;;;4.27;66.06;95585.09;5012346;28;20457;-57
2023/12/29 02:14:23;;;;;;;42.67;24.33;;;4.40;99.90;;;4.29;65.73;95574.59;5012488;28;20951;-58
2023/12/29 02:16:57;;;;;;;40.30;20.43;;;4.40;99.90;;;4.30;65.46;95577.09;5010821;28;20454;-59
2023/12/29 02:19:40;;;;;;;38.40;21.60;;;4.40;99.90;;;4.27;66.08;95564.25;5009476;28;21131;-59
2023/12/29 02:22:08;;;;;;;41.40;21.80;;;4.40;99.90;;;4.24;65.79;95567.03;5007213;28;20453;-58
2023/12/29 02:24:37;;;;;;;41.90;21.57;;;4.40;99.90;;;4.23;65.73;95567.97;5009626;28;20495;-59
2023/12/29 02:27:17;;;;;;;35.57;19.17;;;4.40;99.90;;;4.25;65.69;95578.31;5009225;28;20942;-56
2023/12/29 02:29:48;;;;;;;36.00;19.70;;;4.40;99.90;;;4.23;65.68;95573.19;5009790;28;20496;-56
2023/12/29 02:32:18;;;;;;;36.70;21.53;;;4.40;99.90;;;4.23;65.99;95567.09;5009744;28;20458;-56
2023/12/29 02:34:46;;;;;;;37.93;20.60;;;4.40;99.90;;;4.22;66.05;95565.44;5011364;28;20486;-58
2023/12/29 02:37:13;;;;;;;38.53;20.07;;;4.40;99.90;;;4.20;65.86;95564.66;5011541;28;20473;-57
2023/12/29 02:39:40;;;;;;;40.17;21.60;;;4.40;99.90;;;4.19;65.74;95558.63;5011885;28;20564;-58
2023/12/29 02:42:09;;;;;;;40.77;21.90;;;4.40;99.90;;;4.18;64.85;95556.13;5007778;28;20469;-57
2023/12/29 02:44:36;;;;;;;45.23;26.77;;;4.30;99.90;;;4.12;65.72;95552.06;5007527;28;20475;-57
2023/12/29 02:47:04;;;;;;;63.13;29.23;;;4.30;99.90;;;4.08;65.60;95550.56;5008283;28;20850;-56
2023/12/29 02:49:31;;;;;;;66.87;33.17;;;4.30;99.90;;;4.03;66.26;95557.78;5010443;28;20505;-58
2023/12/29 02:51:59;;;;;;;80.90;36.83;;;4.20;99.90;;;4.00;65.81;95557.94;5010777;28;20453;-59
2023/12/29 02:54:26;;;;;;;93.97;43.33;;;4.20;99.90;;;3.99;65.80;95566.69;5011850;28;20941;-58
2023/12/29 02:56:53;;;;;;;86.50;40.50;;;4.10;99.90;;;3.94;65.45;95557.34;5011622;28;20453;-64
2023/12/29 02:59:22;;;;;;;74.93;39.80;;;4.10;99.90;;;3.92;65.50;95541.00;5010813;28;20466;-56
2023/12/29 03:01:49;;;;;;;73.83;38.63;;;4.10;99.90;;;3.91;65.39;95541.91;5011070;28;20552;-57
2023/12/29 03:04:17;;;;;;;97.13;40.23;;;4.10;99.90;;;3.88;65.31;95534.25;5010402;28;20454;-57
2023/12/29 03:06:44;;;;;;;73.90;39.80;;;4.00;99.90;;;3.85;65.56;95528.41;5006647;28;20988;-57
2023/12/29 03:09:12;;;;;;;81.53;42.90;;;4.00;99.90;;;3.82;65.80;95529.38;5009957;28;20543;-58
2023/12/29 03:11:39;;;;;;;76.10;39.00;;;4.00;99.90;;;3.81;66.03;95530.34;5010107;28;20500;-57
2023/12/29 03:14:06;;;;;;;85.50;39.50;;;4.00;99.90;;;3.83;65.83;95527.66;5010667;28;20453;-56
2023/12/29 03:16:35;;;;;;;85.70;38.53;;;4.00;99.90;;;3.81;65.79;95527.72;5010293;28;20492;-59
2023/12/29 03:19:02;;;;;;;87.00;38.50;;;4.00;99.90;;;3.79;65.29;95529.56;5006235;28;20465;-58
2023/12/29 03:21:30;;;;;;;77.67;40.17;;;4.00;99.90;;;3.77;66.29;95532.25;5007604;28;20522;-56
2023/12/29 03:23:57;;;;;;;78.13;37.93;;;4.00;99.90;;;3.75;65.65;95533.25;5001785;28;20451;-59
2023/12/29 03:26:24;;;;;;;78.67;39.20;;;3.90;99.90;;;3.71;66.06;95522.16;5010182;28;20489;-59
2023/12/29 03:28:52;;;;;;;73.40;37.13;;;3.90;99.90;;;3.67;65.27;95518.06;5009904;28;20457;-58
2023/12/29 03:31:19;;;;;;;78.40;39.90;;;3.90;99.90;;;3.68;65.56;95518.91;5010070;28;20508;-59
2023/12/29 03:33:48;;;;;;;96.10;39.97;;;3.90;99.90;;;3.64;65.93;95512.16;5010327;28;20462;-57
2023/12/29 03:36:15;;;;;;;67.53;34.87;;;3.90;99.90;;;3.64;65.70;95519.97;5009433;28;20484;-59
2023/12/29 03:38:43;;;;;;;69.00;36.47;;;3.80;99.90;;;3.63;65.72;95529.53;5010114;28;20524;-59
2023/12/29 03:41:10;;;;;;;78.53;39.47;;;3.80;99.90;;;3.62;65.60;95527.84;5010516;28;20469;-58
2023/12/29 03:43:37;;;;;;;73.73;36.37;;;3.80;99.90;;;3.63;65.71;95531.31;5009571;28;20450;-58
2023/12/29 03:46:15;;;;;;;67.90;33.87;;;3.80;99.90;;;3.61;65.35;95531.41;5009265;28;20500;-58
2023/12/29 03:48:43;;;;;;;67.10;28.27;;;3.80;99.90;;;3.57;65.17;95528.09;5007951;28;20452;-55
2023/12/29 03:51:11;;;;;;;46.70;25.67;;;3.80;99.90;;;3.54;65.42;95533.47;5010202;28;20493;-57
2023/12/29 03:53:39;;;;;;;47.53;25.70;;;3.70;99.90;;;3.50;64.74;95537.16;5006258;28;20525;-56
2023/12/29 03:56:07;;;;;;;45.17;22.30;;;3.70;99.90;;;3.46;65.36;95527.84;5010136;28;20476;-57
2023/12/29 03:58:34;;;;;;;44.77;22.50;;;3.70;99.90;;;3.44;65.10;95540.09;5009989;28;20511;-57
2023/12/29 04:01:02;;;;;;;49.03;24.77;;;3.60;99.90;;;3.39;65.01;95531.66;5005772;28;20997;-58
2023/12/29 04:03:29;;;;;;;54.33;24.20;;;3.60;99.90;;;3.36;65.23;95522.28;5005229;28;20556;-59
2023/12/29 04:05:57;;;;;;;51.83;24.93;;;3.60;99.90;;;3.31;65.73;95518.22;5011033;28;20470;-59
2023/12/29 04:08:26;;;;;;;55.17;23.90;;;3.50;99.90;;;3.33;64.98;95524.19;5009502;28;20453;-57
2023/12/29 04:10:53;;;;;;;43.47;24.47;;;3.50;99.90;;;3.31;64.71;95528.63;5005626;28;20496;-58
2023/12/29 04:13:20;;;;;;;43.30;22.33;;;3.50;99.90;;;3.28;65.87;95523.59;5009223;28;20445;-59
2023/12/29 04:15:47;;;;;;;50.20;24.80;;;3.50;99.90;;;3.25;65.08;95529.78;5007503;28;20842;-57
2023/12/29 04:18:15;;;;;;;48.70;24.33;;;3.40;99.90;;;3.15;65.37;95529.41;5009548;28;20457;-59
2023/12/29 04:20:42;;;;;;;45.60;24.10;;;3.40;99.90;;;3.10;65.20;95530.56;5010249;28;20469;-59
2023/12/29 04:23:10;;;;;;;43.37;23.13;;;3.30;99.90;;;3.05;66.76;95526.44;5009752;28;20446;-58
2023/12/29 04:25:39;;;;;;;48.20;25.00;;;3.30;99.90;;;3.05;65.68;95520.41;5009784;28;20889;-56
2023/12/29 04:28:07;;;;;;;46.13;24.47;;;3.30;99.90;;;3.03;66.47;95519.66;5010278;28;20523;-57
2023/12/29 04:30:35;;;;;;;44.33;23.40;;;3.20;99.90;;;3.03;65.60;95519.66;5010088;28;20497;-58
2023/12/29 04:33:03;;;;;;;51.63;25.40;;;3.20;99.90;;;3.03;66.36;95524.84;5009223;28;20458;-57
2023/12/29 04:35:30;;;;;;;38.90;23.50;;;3.20;99.90;;;3.03;66.44;95535.22;5009333;28;20519;-55
2023/12/29 04:37:58;;;;;;;49.70;24.50;;;3.20;99.90;;;3.05;66.22;95539.44;5009457;28;20462;-57
2023/12/29 04:40:25;;;;;;;57.83;26.30;;;3.20;99.90;;;3.07;66.33;95536.78;5008881;28;20496;-57
2023/12/29 04:42:54;;;;;;;57.00;24.40;;;3.30;99.90;;;3.07;66.61;95531.56;5008813;28;20551;-59
2023/12/29 04:45:21;;;;;;;43.77;22.27;;;3.30;99.90;;;3.08;66.39;95537.59;5008600;28;20480;-56
2023/12/29 04:47:48;;;;;;;42.03;23.00;;;3.30;99.90;;;3.08;65.82;95541.03;5010695;28;20528;-60
2023/12/29 04:50:16;;;;;;;45.10;24.40;;;3.30;99.90;;;3.07;65.27;95536.78;5012760;28;20485;-59
2023/12/29 04:52:43;;;;;;;54.00;25.90;;;3.30;99.90;;;3.00;65.51;95527.59;5013276;28;20552;-58
2023/12/29 04:55:11;;;;;;;42.33;25.83;;;3.20;99.90;;;2.91;64.81;95526.28;5012568;28;20470;-59
2023/12/29 04:57:38;;;;;;;46.37;24.17;;;3.20;99.90;;;2.82;65.85;95521.56;5012577;28;20497;-57
2023/12/29 05:00:09;;;;;;;44.63;24.27;;;3.10;99.90;;;2.77;65.58;95519.19;5012576;28;20584;-58
2023/12/29 05:02:36;;;;;;;44.50;23.90;;;3.00;99.90;;;2.74;65.44;95521.09;5008405;28;20447;-58
2023/12/29 05:05:03;;;;;;;46.87;24.33;;;3.00;99.90;;;2.70;65.45;95523.03;5011675;28;20842;-58
2023/12/29 05:07:31;;;;;;;47.47;23.90;;;2.90;99.90;;;2.69;65.35;95523.94;5012329;28;20454;-57
2023/12/29 05:09:58;;;;;;;39.97;21.27;;;2.90;99.90;;;2.66;64.93;95526.69;5012451;28;20867;-56
2023/12/29 05:12:25;;;;;;;43.17;21.80;;;2.90;99.90;;;2.62;65.18;95525.16;5012132;28;20524;-58
2023/12/29 05:14:52;;;;;;;36.40;20.17;;;2.80;99.90;;;2.57;65.22;95524.53;5012262;28;20523;-59
2023/12/29 05:17:21;;;;;;;37.97;21.87;;;2.80;99.90;;;2.53;65.66;95530.81;5011947;28;20500;-57
2023/12/29 05:19:49;;;;;;;50.83;23.50;;;2.70;99.90;;;2.54;64.67;95537.66;5011924;28;20465;-58
2023/12/29 05:22:17;;;;;;;42.07;24.33;;;2.70;99.90;;;2.50;64.55;95517.03;5008512;28;20498;-57
2023/12/29 05:24:45;;;;;;;37.90;20.00;;;2.70;99.90;;;2.46;64.87;95522.44;5012387;28;20572;-56
2023/12/29 05:27:12;;;;;;;41.00;21.00;;;2.70;99.90;;;2.41;64.54;95527.88;5012101;28;20450;-58
2023/12/29 05:29:39;;;;;;;52.80;26.07;;;2.70;99.90;;;2.38;65.05;95517.63;5012418;28;20478;-58
2023/12/29 05:32:08;;;;;;;44.43;26.10;;;2.60;99.90;;;2.35;64.02;95512.59;5010785;28;20504;-59
2023/12/29 05:34:36;;;;;;;45.00;27.33;;;2.60;99.90;;;2.32;64.31;95507.53;5012000;28;20477;-59
2023/12/29 05:37:04;;;;;;;43.93;21.20;;;2.60;99.90;;;2.29;64.64;95510.28;5011483;28;20452;-57
2023/12/29 05:39:32;;;;;;;39.10;20.43;;;2.50;99.90;;;2.26;64.54;95518.22;5012243;28;20509;-58
2023/12/29 05:41:59;;;;;;;36.37;20.10;;;2.50;99.90;;;2.24;64.61;95520.88;5010458;28;20457;-58
2023/12/29 05:44:26;;;;;;;35.10;21.07;;;2.50;99.90;;;2.22;64.72;95520.13;5012055;28;20476;-57
2023/12/29 05:46:54;;;;;;;35.80;20.23;;;2.50;99.90;;;2.20;65.14;95523.69;5011489;28;20450;-58
2023/12/29 05:49:26;;;;;;;40.17;20.60;;;2.50;99.90;;;2.18;64.86;95520.34;5011835;28;20534;-58
2023/12/29 05:51:55;;;;;;;42.70;22.50;;;2.40;99.90;;;2.15;64.45;95517.00;5006724;28;20588;-59
2023/12/29 05:54:23;;;;;;;41.50;20.47;;;2.40;99.90;;;2.14;65.53;95515.31;5006504;28;20464;-59
2023/12/29 05:56:50;;;;;;;43.13;20.73;;;2.40;99.90;;;2.12;65.36;95517.16;5006559;28;20811;-58
2023/12/29 05:59:17;;;;;;;36.17;20.10;;;2.40;99.90;;;2.11;64.40;95507.66;5006135;28;20468;-56
2023/12/29 06:01:45;;;;;;;37.97;21.43;;;2.30;99.90;;;2.12;65.28;95511.94;5005922;28;20465;-56
2023/12/29 06:04:12;;;;;;;42.93;21.37;;;2.30;99.90;;;2.11;64.64;95515.44;5008388;28;20441;-59
2023/12/29 06:06:39;;;;;;;37.73;20.40;;;2.40;99.90;;;2.11;65.16;95512.03;5007480;28;20553;-58
2023/12/29 06:09:09;;;;;;;38.60;20.70;;;2.40;99.90;;;2.05;65.14;95513.16;5010529;28;20465;-58
2023/12/29 06:11:36;;;;;;;36.23;20.43;;;2.30;99.90;;;2.01;64.86;95511.59;5010093;28;21033;-58
2023/12/29 06:14:04;;;;;;;46.13;23.70;;;2.30;99.90;;;2.01;64.91;95514.19;5010278;28;20461;-57
2023/12/29 06:16:31;;;;;;;47.90;24.90;;;2.30;99.90;;;2.01;65.20;95514.19;5007611;28;20466;-59
2023/12/29 06:18:58;;;;;;;53.10;25.90;;;2.30;99.90;;;2.02;64.42;95521.06;5005834;28;20449;-59
2023/12/29 06:21:26;;;;;;;62.93;29.27;;;2.30;99.90;;;2.03;63.78;95524.50;5010532;28;20474;-59
2023/12/29 06:23:53;;;;;;;59.17;31.07;;;2.30;99.90;;;2.04;65.06;95524.44;5010333;28;20472;-56
2023/12/29 06:26:22;;;;;;;56.20;29.57;;;2.30;99.90;;;2.08;63.81;95532.94;5009670;28;20465;-59
2023/12/29 06:28:50;;;;;;;55.87;25.23;;;2.30;99.90;;;2.11;63.78;95527.59;5006244;28;20493;-59
2023/12/29 06:31:18;;;;;;;41.40;24.97;;;2.30;99.90;;;2.14;64.23;95533.47;5005031;28;20497;-59
2023/12/29 06:33:46;;;;;;;57.27;27.67;;;2.40;99.90;;;2.20;64.07;95528.88;5006332;28;20981;-56
2023/12/29 06:36:13;;;;;;;47.00;24.67;;;2.40;99.90;;;2.27;64.33;95531.13;5006095;28;21006;-57
2023/12/29 06:38:41;;;;;;;48.83;26.83;;;2.50;99.90;;;2.34;63.38;95521.31;5006463;28;20507;-58
2023/12/29 06:41:08;;;;;;;42.87;24.50;;;2.60;99.70;;;2.47;63.70;95527.56;5010308;28;20496;-56
2023/12/29 06:43:37;;;;;;;54.47;26.40;;;2.70;99.90;;;2.90;64.95;95531.56;5009911;28;20862;-59
2023/12/29 06:46:06;;;;;;;44.47;26.10;;;3.10;99.90;;;3.53;66.03;95534.41;5008312;28;20466;-57
2023/12/29 06:48:33;;;;;;;61.03;31.17;;;3.70;99.90;;;4.23;62.59;95525.44;5009783;28;20486;-57
2023/12/29 06:51:00;;;;;;;72.43;31.90;;;4.40;99.90;;;4.83;60.68;95522.06;4964243;28;1201147;-62
2023/12/29 06:53:28;;;;;;;72.07;36.30;;;5.00;98.10;;;5.41;59.71;95524.78;5008963;28;20278;-59
2023/12/29 06:55:55;;;;;;;74.63;40.90;;;5.70;97.30;;;5.90;58.07;95520.03;5006550;28;20989;-58
2023/12/29 06:58:23;;;;;;;61.63;32.50;;;6.20;96.10;;;6.44;57.77;95524.50;5010327;28;20452;-58
2023/12/29 07:00:52;;;;;;;61.33;31.37;;;6.80;95.40;;;7.03;57.03;95518.06;5010310;28;20889;-57
2023/12/29 07:03:19;;;;;;;55.30;31.00;;;7.30;94.80;;;7.62;55.55;95521.97;5011215;28;20476;-57
2023/12/29 07:05:46;;;;;;;51.80;29.83;;;7.80;93.80;;;8.19;54.76;95524.09;5006789;28;20465;-59
2023/12/29 07:08:15;;;;;;;54.60;28.57;;;8.30;93.10;;;8.71;54.01;95516.09;5010417;28;20455;-60
2023/12/29 07:10:42;;;;;;;55.50;30.87;;;8.80;92.10;;;9.31;52.60;95524.72;5005585;28;20993;-61
2023/12/29 07:13:10;;;;;;;64.23;32.27;;;9.40;91.10;;;9.87;52.21;95516.09;5006091;28;20449;-60
2023/12/29 07:15:37;;;;;;;59.33;32.37;;;10.00;90.00;;;10.46;51.38;95517.63;5009839;28;20879;-62
2023/12/29 07:18:06;;;;;;;66.07;32.40;;;10.60;88.30;;;11.06;50.17;95511.91;5009969;28;20445;-58
2023/12/29 07:20:34;;;;;;;57.13;29.83;;;11.30;85.40;;;11.60;49.40;95507.41;5009787;28;20478;-56
2023/12/29 07:23:00;;;;;;;49.20;27.27;;;11.80;83.40;;;12.12;48.17;95502.13;5006206;28;20450;-57
2023/12/29 07:25:30;;;;;;;53.37;28.97;;;12.40;81.00;;;12.60;47.11;95495.31;5010747;28;20484;-59
2023/12/29 07:27:57;;;;;;;60.77;31.33;;;13.00;77.00;;;13.13;46.47;95497.53;5011107;28;20462;-56
2023/12/29 07:30:25;;;;;;;64.43;30.70;;;13.50;76.10;;;13.60;46.10;95487.06;5005932;28;21017;-60
2023/12/29 07:32:53;;;;;;;52.00;28.43;;;14.00;75.20;;;14.01;45.16;95504.47;5001090;28;20863;-57
2023/12/29 07:35:22;;;;;;;42.30;25.10;;;14.40;72.80;;;14.37;44.47;95501.94;5009500;28;20786;-57
2023/12/29 07:37:49;;;;;;;45.77;26.23;;;14.90;71.10;;;14.73;43.77;95502.03;5006146;28;20456;-58
2023/12/29 07:40:17;;;;;;;44.07;24.23;;;15.30;69.30;;;15.06;42.94;95497.88;5006327;28;20477;-56
2023/12/29 07:42:46;;;;;;;45.10;25.30;;;15.60;67.30;;;15.33;42.43;95498.78;5006208;28;20537;-60
2023/12/29 07:45:14;;;;;;;41.37;23.13;;;15.90;65.30;;;15.60;41.99;95503.13;5005863;28;21040;-62
2023/12/29 07:47:41;;;;;;;45.73;22.70;;;16.10;64.80;;;15.84;41.37;95499.81;5009900;28;20481;-59
2023/12/29 07:50:09;;;;;;;328.33;177.70;;;16.30;62.70;;;16.07;40.90;95513.38;5005501;28;20488;-58
2023/12/29 07:52:38;;;;;;;49.33;27.50;;;16.50;62.40;;;16.22;39.86;95510.13;5006268;28;20865;-61
2023/12/29 07:55:06;;;;;;;62.73;30.10;;;16.50;60.60;;;16.23;39.88;95501.16;5009811;28;21056;-61
2023/12/29 07:57:33;;;;;;;51.47;29.53;;;16.50;60.50;;;16.22;39.53;95504.81;5010162;28;20454;-62
2023/12/29 08:00:02;;;;;;;48.50;27.77;;;16.40;59.40;;;16.16;40.04;95505.44;5009523;28;20476;-59
2023/12/29 08:02:30;;;;;;;56.87;27.90;;;16.30;60.00;;;16.15;39.98;95509.94;5008920;28;20462;-58
2023/12/29 08:04:57;;;;;;;52.40;28.27;;;16.20;59.60;;;16.15;39.79;95512.59;5008525;28;20469;-59
2023/12/29 08:07:25;;;;;;;52.90;27.70;;;16.10;60.30;;;16.15;39.79;95514.41;5009727;28;20454;-62
2023/12/29 08:09:53;;;;;;;47.93;26.53;;;16.10;59.50;;;16.09;39.52;95521.19;5009186;28;20568;-60
2023/12/29 08:12:21;;;;;;;50.03;25.60;;;16.00;59.30;;;16.09;39.78;95519.34;5008187;28;20551;-61
2023/12/29 08:14:48;;;;;;;53.47;24.90;;;16.00;59.20;;;16.19;39.95;95505.13;5005453;28;20950;-60
2023/12/29 08:17:15;;;;;;;51.40;24.10;;;16.10;59.20;;;16.35;39.41;95513.16;5009653;28;20464;-57
2023/12/29 08:19:43;;;;;;;44.47;24.90;;;16.20;59.10;;;16.56;39.20;95519.88;5009106;28;21027;-61
2023/12/29 08:22:10;;;;;;;50.87;24.43;;;16.40;58.90;;;16.67;38.92;95523.09;5005535;28;20453;-61
2023/12/29 08:24:37;;;;;;;42.57;23.00;;;16.50;58.40;;;16.55;38.74;95515.59;5005822;28;20465;-62
2023/12/29 08:27:06;;;;;;;46.70;23.77;;;16.40;57.70;;;16.21;37.97;95519.91;5004781;28;20886;-60
2023/12/29 08:29:34;;;;;;;47.23;26.33;;;16.20;55.60;;;15.63;38.82;95515.22;5002074;28;20516;-57
2023/12/29 08:32:02;;;;;;;47.67;25.93;;;15.70;56.40;;;15.13;39.57;95514.00;4995035;28;21017;-57
2023/12/29 08:34:30;;;;;;;47.97;26.37;;;15.30;57.40;;;14.87;40.23;95509.44;5007919;28;20532;-57
2023/12/29 08:36:57;;;;;;;52.77;29.50;;;15.00;58.00;;;14.98;40.36;95511.03;5007966;28;21234;-58
2023/12/29 08:39:25;;;;;;;55.07;28.83;;;15.00;58.90;;;15.21;40.14;95511.41;5005758;28;20507;-63
2023/12/29 08:41:52;;;;;;;89.40;29.93;;;15.10;59.00;;;15.55;39.71;95508.03;5008844;28;20454;-57
2023/12/29 08:44:21;;;;;;;59.43;28.00;;;15.30;58.70;;;15.92;39.63;95512.28;5003426;28;20453;-60
2023/12/29 08:46:48;;;;;;;59.93;28.63;;;15.50;59.00;;;16.15;39.10;95509.94;5003164;28;20457;-66
2023/12/29 08:49:15;;;;;;;56.13;28.47;;;15.70;58.50;;;16.31;39.07;95514.47;5003555;28;20456;-58
2023/12/29 08:51:43;;;;;;;52.23;27.73;;;15.90;58.00;;;16.25;39.18;95510.66;5006289;28;20484;-60
2023/12/29 08:54:11;;;;;;;194.50;86.93;;;16.00;58.00;;;16.19;39.59;95521.06;5009146;28;20454;-60
2023/12/29 08:56:38;;;;;;;211.57;87.83;;;16.00;58.00;;;16.15;39.15;95517.06;5004608;28;21473;-59
2023/12/29 08:59:06;;;;;;;284.73;123.63;;;15.90;57.80;;;16.11;39.42;95519.19;5007839;28;20504;-64
2023/12/29 09:01:35;;;;;;;148.43;64.97;;;15.90;58.30;;;16.05;39.80;95523.31;5003242;28;20489;-63
2023/12/29 09:04:02;;;;;;;60.60;33.30;;;15.80;58.30;;;16.00;39.60;95522.94;5006446;28;20441;-62
2023/12/29 09:06:29;;;;;;;50.23;29.77;;;15.80;58.30;;;15.93;39.80;95519.28;5000085;28;21028;-59
2023/12/29 09:08:56;;;;;;;58.47;32.40;;;15.70;58.30;;;15.83;40.08;95508.75;5006887;28;20795;-61
2023/12/29 09:11:24;;;;;;;57.03;32.30;;;15.70;58.70;;;15.80;39.52;95502.94;5004327;28;20484;-59
2023/12/29 09:13:52;;;;;;;55.77;30.90;;;15.60;58.20;;;15.72;40.08;95503.69;5012755;28;20454;-61
2023/12/29 09:16:19;;;;;;;50.13;27.77;;;15.50;58.80;;;15.74;40.27;95501.72;4994466;28;20619;-60
2023/12/29 09:18:48;;;;;;;56.43;31.13;;;15.50;59.00;;;15.79;40.09;95499.47;5008120;28;20492;-59
2023/12/29 09:21:17;;;;;;;53.63;29.23;;;15.50;59.10;;;15.92;40.46;95499.84;5008266;28;20493;-60
2023/12/29 09:23:44;;;;;;;50.77;31.17;;;15.60;59.50;;;16.07;39.77;95486.00;5000212;28;20464;-61
2023/12/29 09:26:11;;;;;;;63.53;30.97;;;15.70;59.20;;;16.22;40.08;95481.78;5005360;28;21026;-62
2023/12/29 09:28:39;;;;;;;53.73;30.33;;;15.90;59.20;;;16.37;39.54;95481.97;5006520;28;20473;-62
2023/12/29 09:31:06;;;;;;;51.00;30.67;;;16.00;59.10;;;16.57;39.70;95476.41;5003442;28;20835;-60
2023/12/29 09:33:33;;;;;;;56.37;30.50;;;16.20;59.10;;;16.72;39.51;95477.44;5002614;28;21118;-60
2023/12/29 09:36:02;;;;;;;69.07;31.50;;;16.30;58.50;;;16.79;39.36;95481.13;5011243;28;20481;-59
2023/12/29 09:38:30;;;;;;;62.53;33.50;;;16.40;57.70;;;16.92;39.08;95471.88;5007132;28;20461;-60
2023/12/29 09:40:58;;;;;;;57.83;33.03;;;16.50;58.80;;;17.12;38.98;95475.03;5011259;28;20468;-60
2023/12/29 09:43:26;;;;;;;55.60;31.43;;;16.60;58.70;;;17.30;38.46;95469.53;5007910;28;20942;-63
2023/12/29 09:45:54;;;;;;;55.23;31.40;;;16.80;57.60;;;17.39;37.72;95464.06;5009555;28;20465;-61
2023/12/29 09:48:21;;;;;;;71.70;38.37;;;16.90;56.90;;;17.36;36.97;95471.53;5007455;28;20504;-62
2023/12/29 09:50:50;;;;;;;67.23;35.50;;;16.80;55.60;;;17.28;37.49;95468.88;5007173;28;20485;-60
2023/12/29 09:53:19;;;;;;;58.43;35.50;;;16.70;56.20;;;17.18;37.79;95469.03;5011904;28;20489;-60
2023/12/29 09:55:48;;;;;;;56.77;35.93;;;16.60;56.20;;;17.19;37.72;95455.56;5004601;28;20508;-60
2023/12/29 09:58:16;;;;;;;69.23;38.40;;;16.60;57.10;;;17.31;38.68;95453.44;5010786;28;20461;-60
2023/12/29 10:00:44;;;;;;;70.20;38.50;;;16.70;57.50;;;17.53;38.14;95459.88;5010556;28;20498;-61
2023/12/29 10:03:11;;;;;;;62.47;39.07;;;16.90;57.40;;;17.85;38.00;95457.34;5013144;28;20437;-63
2023/12/29 10:05:38;;;;;;;72.67;41.60;;;17.20;57.60;;;18.19;37.92;95451.78;5011584;28;20481;-64
2023/12/29 10:08:08;;;;;;;80.40;42.30;;;17.50;57.90;;;18.56;37.70;95452.94;5011513;28;20779;-63
2023/12/29 10:10:36;;;;;;;83.23;43.80;;;17.90;57.50;;;18.95;37.45;95440.56;5006262;28;20488;-64
2023/12/29 10:13:05;;;;;;;73.90;44.73;;;18.30;57.10;;;19.35;36.36;95438.56;5007130;28;20912;-63
2023/12/29 10:15:43;;;;;;;92.17;48.30;;;18.70;56.20;;;19.71;35.95;95430.72;5009053;28;20501;-61
2023/12/29 10:18:16;;;;;;;74.73;45.77;;;19.10;55.50;;;20.08;35.37;95420.16;5009923;28;20795;-61